sensor_id;sensor_type;location;lat;lon;timestamp;temperature;humidity
78516;SHT31;67815;51.990;5.688;2023-02-28T00:00:30;4.6;58.8
78516;SHT31;67815;51.990;5.688;2023-02-28T00:03:01;4.6;59.0
78516;SHT31;67815;51.990;5.688;2023-02-28T00:05:31;4.6;59.2
78516;SHT31;67815;51.990;5.688;2023-02-28T00:08:00;4.6;59.3
78516;SHT31;67815;51.990;5.688;2023-02-28T00:10:31;4.6;59.6
78516;SHT31;67815;51.990;5.688;2023-02-28T00:13:04;4.6;59.6
78516;SHT31;67815;51.990;5.688;2023-02-28T00:15:34;4.6;59.8
78516;SHT31;67815;51.990;5.688;2023-02-28T00:18:04;4.6;59.8
78516;SHT31;67815;51.990;5.688;2023-02-28T00:20:34;4.7;59.9
78516;SHT31;67815;51.990;5.688;2023-02-28T00:23:03;4.7;60.0
78516;SHT31;67815;51.990;5.688;2023-02-28T00:25:33;4.7;59.8
78516;SHT31;67815;51.990;5.688;2023-02-28T00:28:03;4.7;59.8
78516;SHT31;67815;51.990;5.688;2023-02-28T00:30:33;4.7;60.1
78516;SHT31;67815;51.990;5.688;2023-02-28T00:33:02;4.7;59.8
78516;SHT31;67815;51.990;5.688;2023-02-28T00:35:32;4.7;59.8
78516;SHT31;67815;51.990;5.688;2023-02-28T00:38:02;4.7;60.2
78516;SHT31;67815;51.990;5.688;2023-02-28T00:40:31;4.8;60.3
78516;SHT31;67815;51.990;5.688;2023-02-28T00:43:01;4.8;60.2
78516;SHT31;67815;51.990;5.688;2023-02-28T00:45:31;4.8;60.0
78516;SHT31;67815;51.990;5.688;2023-02-28T00:48:01;4.8;60.3
78516;SHT31;67815;51.990;5.688;2023-02-28T00:50:31;4.8;60.0
78516;SHT31;67815;51.990;5.688;2023-02-28T00:53:01;4.9;59.7
78516;SHT31;67815;51.990;5.688;2023-02-28T00:55:30;4.9;60.1
78516;SHT31;67815;51.990;5.688;2023-02-28T00:58:00;4.9;60.2
78516;SHT31;67815;51.990;5.688;2023-02-28T01:00:30;4.9;59.7
78516;SHT31;67815;51.990;5.688;2023-02-28T01:03:01;4.9;59.4
78516;SHT31;67815;51.990;5.688;2023-02-28T01:05:31;5.0;59.1
78516;SHT31;67815;51.990;5.688;2023-02-28T01:08:00;5.0;59.8
78516;SHT31;67815;51.990;5.688;2023-02-28T01:10:30;5.0;59.0
78516;SHT31;67815;51.990;5.688;2023-02-28T01:13:00;5.0;59.0
78516;SHT31;67815;51.990;5.688;2023-02-28T01:15:30;5.1;59.2
78516;SHT31;67815;51.990;5.688;2023-02-28T01:18:00;5.1;59.0
78516;SHT31;67815;51.990;5.688;2023-02-28T01:20:29;5.1;58.7
78516;SHT31;67815;51.990;5.688;2023-02-28T01:22:59;5.1;58.7
78516;SHT31;67815;51.990;5.688;2023-02-28T01:25:29;5.1;58.6
78516;SHT31;67815;51.990;5.688;2023-02-28T01:27:58;5.1;58.7
78516;SHT31;67815;51.990;5.688;2023-02-28T01:30:28;5.1;58.8
78516;SHT31;67815;51.990;5.688;2023-02-28T01:32:58;5.1;58.7
78516;SHT31;67815;51.990;5.688;2023-02-28T01:35:32;5.1;58.8
78516;SHT31;67815;51.990;5.688;2023-02-28T01:38:02;5.1;58.9
78516;SHT31;67815;51.990;5.688;2023-02-28T01:40:32;5.1;59.2
78516;SHT31;67815;51.990;5.688;2023-02-28T01:43:02;5.1;59.2
78516;SHT31;67815;51.990;5.688;2023-02-28T01:45:35;5.1;59.1
78516;SHT31;67815;51.990;5.688;2023-02-28T01:48:07;5.1;59.0
78516;SHT31;67815;51.990;5.688;2023-02-28T01:50:41;5.1;59.3
78516;SHT31;67815;51.990;5.688;2023-02-28T01:53:16;5.1;58.9
78516;SHT31;67815;51.990;5.688;2023-02-28T01:55:50;5.1;59.1
78516;SHT31;67815;51.990;5.688;2023-02-28T01:58:21;5.1;58.7
78516;SHT31;67815;51.990;5.688;2023-02-28T02:00:52;5.1;59.1
78516;SHT31;67815;51.990;5.688;2023-02-28T02:03:21;5.1;59.0
78516;SHT31;67815;51.990;5.688;2023-02-28T02:05:51;5.1;59.4
78516;SHT31;67815;51.990;5.688;2023-02-28T02:08:23;5.1;59.5
78516;SHT31;67815;51.990;5.688;2023-02-28T02:10:56;5.1;58.9
78516;SHT31;67815;51.990;5.688;2023-02-28T02:13:37;5.1;59.1
78516;SHT31;67815;51.990;5.688;2023-02-28T02:16:24;5.1;59.6
78516;SHT31;67815;51.990;5.688;2023-02-28T02:19:08;5.1;59.4
78516;SHT31;67815;51.990;5.688;2023-02-28T02:22:14;5.2;59.1
78516;SHT31;67815;51.990;5.688;2023-02-28T02:25:13;5.2;58.9
78516;SHT31;67815;51.990;5.688;2023-02-28T02:32:22;5.2;58.7
78516;SHT31;67815;51.990;5.688;2023-02-28T02:35:01;5.2;59.0
78516;SHT31;67815;51.990;5.688;2023-02-28T02:37:39;5.2;58.9
78516;SHT31;67815;51.990;5.688;2023-02-28T02:40:15;5.2;59.4
78516;SHT31;67815;51.990;5.688;2023-02-28T02:42:51;5.2;59.0
78516;SHT31;67815;51.990;5.688;2023-02-28T02:45:31;5.2;58.7
78516;SHT31;67815;51.990;5.688;2023-02-28T02:48:09;5.2;58.6
78516;SHT31;67815;51.990;5.688;2023-02-28T02:50:45;5.2;58.9
78516;SHT31;67815;51.990;5.688;2023-02-28T02:53:18;5.2;58.9
78516;SHT31;67815;51.990;5.688;2023-02-28T02:55:52;5.2;58.5
78516;SHT31;67815;51.990;5.688;2023-02-28T02:58:29;5.3;58.5
78516;SHT31;67815;51.990;5.688;2023-02-28T03:01:04;5.3;58.5
78516;SHT31;67815;51.990;5.688;2023-02-28T03:03:34;5.3;58.7
78516;SHT31;67815;51.990;5.688;2023-02-28T03:06:05;5.3;58.6
78516;SHT31;67815;51.990;5.688;2023-02-28T03:08:38;5.3;58.6
78516;SHT31;67815;51.990;5.688;2023-02-28T03:11:14;5.3;58.4
78516;SHT31;67815;51.990;5.688;2023-02-28T03:13:55;5.3;58.5
78516;SHT31;67815;51.990;5.688;2023-02-28T03:18:26;5.3;58.3
78516;SHT31;67815;51.990;5.688;2023-02-28T03:21:06;5.3;58.8
78516;SHT31;67815;51.990;5.688;2023-02-28T03:23:45;5.3;59.0
78516;SHT31;67815;51.990;5.688;2023-02-28T03:26:22;5.3;58.7
78516;SHT31;67815;51.990;5.688;2023-02-28T03:29:02;5.3;58.5
78516;SHT31;67815;51.990;5.688;2023-02-28T03:31:38;5.3;59.3
78516;SHT31;67815;51.990;5.688;2023-02-28T03:34:14;5.3;59.1
78516;SHT31;67815;51.990;5.688;2023-02-28T03:36:49;5.3;59.3
78516;SHT31;67815;51.990;5.688;2023-02-28T03:39:27;5.3;59.4
78516;SHT31;67815;51.990;5.688;2023-02-28T03:42:01;5.3;59.7
78516;SHT31;67815;51.990;5.688;2023-02-28T03:44:38;5.3;59.6
78516;SHT31;67815;51.990;5.688;2023-02-28T03:47:12;5.3;60.1
78516;SHT31;67815;51.990;5.688;2023-02-28T03:49:49;5.3;59.7
78516;SHT31;67815;51.990;5.688;2023-02-28T03:52:24;5.4;58.2
78516;SHT31;67815;51.990;5.688;2023-02-28T03:54:58;5.4;58.0
78516;SHT31;67815;51.990;5.688;2023-02-28T03:57:39;5.4;57.8
78516;SHT31;67815;51.990;5.688;2023-02-28T04:00:14;5.4;58.2
78516;SHT31;67815;51.990;5.688;2023-02-28T04:02:47;5.4;58.3
78516;SHT31;67815;51.990;5.688;2023-02-28T04:05:21;5.4;56.4
78516;SHT31;67815;51.990;5.688;2023-02-28T04:07:52;5.4;56.6
78516;SHT31;67815;51.990;5.688;2023-02-28T04:10:24;5.3;57.5
78516;SHT31;67815;51.990;5.688;2023-02-28T04:12:55;5.3;58.0
78516;SHT31;67815;51.990;5.688;2023-02-28T04:15:25;5.3;57.2
78516;SHT31;67815;51.990;5.688;2023-02-28T04:17:54;5.3;57.6
78516;SHT31;67815;51.990;5.688;2023-02-28T04:20:24;5.3;56.2
78516;SHT31;67815;51.990;5.688;2023-02-28T04:22:53;5.3;56.2
78516;SHT31;67815;51.990;5.688;2023-02-28T04:25:23;5.2;56.3
78516;SHT31;67815;51.990;5.688;2023-02-28T04:27:52;5.2;56.8
78516;SHT31;67815;51.990;5.688;2023-02-28T04:30:22;5.2;57.2
78516;SHT31;67815;51.990;5.688;2023-02-28T04:32:51;5.2;56.6
78516;SHT31;67815;51.990;5.688;2023-02-28T04:35:21;5.2;56.2
78516;SHT31;67815;51.990;5.688;2023-02-28T04:37:50;5.2;56.7
78516;SHT31;67815;51.990;5.688;2023-02-28T04:40:20;5.2;56.5
78516;SHT31;67815;51.990;5.688;2023-02-28T04:42:50;5.2;57.0
78516;SHT31;67815;51.990;5.688;2023-02-28T04:45:19;5.2;57.3
78516;SHT31;67815;51.990;5.688;2023-02-28T04:47:49;5.2;56.0
78516;SHT31;67815;51.990;5.688;2023-02-28T04:50:19;5.2;56.0
78516;SHT31;67815;51.990;5.688;2023-02-28T04:52:48;5.2;55.8
78516;SHT31;67815;51.990;5.688;2023-02-28T04:55:18;5.2;56.1
78516;SHT31;67815;51.990;5.688;2023-02-28T04:57:47;5.2;55.3
78516;SHT31;67815;51.990;5.688;2023-02-28T05:00:18;5.3;55.7
78516;SHT31;67815;51.990;5.688;2023-02-28T05:02:48;5.3;55.7
78516;SHT31;67815;51.990;5.688;2023-02-28T05:05:17;5.3;54.9
78516;SHT31;67815;51.990;5.688;2023-02-28T05:07:49;5.3;55.7
78516;SHT31;67815;51.990;5.688;2023-02-28T05:10:23;5.3;55.1
78516;SHT31;67815;51.990;5.688;2023-02-28T05:12:55;5.3;54.8
78516;SHT31;67815;51.990;5.688;2023-02-28T05:15:24;5.3;55.0
78516;SHT31;67815;51.990;5.688;2023-02-28T05:17:54;5.3;55.3
78516;SHT31;67815;51.990;5.688;2023-02-28T05:20:23;5.3;55.0
78516;SHT31;67815;51.990;5.688;2023-02-28T05:22:53;5.3;54.8
78516;SHT31;67815;51.990;5.688;2023-02-28T05:25:22;5.3;54.9
78516;SHT31;67815;51.990;5.688;2023-02-28T05:27:52;5.3;55.6
78516;SHT31;67815;51.990;5.688;2023-02-28T05:30:22;5.3;55.2
78516;SHT31;67815;51.990;5.688;2023-02-28T05:32:51;5.3;55.5
78516;SHT31;67815;51.990;5.688;2023-02-28T05:35:21;5.3;54.5
78516;SHT31;67815;51.990;5.688;2023-02-28T05:37:53;5.3;56.1
78516;SHT31;67815;51.990;5.688;2023-02-28T05:40:23;5.2;55.8
78516;SHT31;67815;51.990;5.688;2023-02-28T05:42:52;5.2;56.7
78516;SHT31;67815;51.990;5.688;2023-02-28T05:45:22;5.2;56.8
78516;SHT31;67815;51.990;5.688;2023-02-28T05:47:55;5.2;55.6
78516;SHT31;67815;51.990;5.688;2023-02-28T05:50:25;5.2;56.5
78516;SHT31;67815;51.990;5.688;2023-02-28T05:52:54;5.2;56.5
78516;SHT31;67815;51.990;5.688;2023-02-28T05:55:25;5.2;55.2
78516;SHT31;67815;51.990;5.688;2023-02-28T05:57:56;5.2;56.9
78516;SHT31;67815;51.990;5.688;2023-02-28T06:00:26;5.2;57.1
78516;SHT31;67815;51.990;5.688;2023-02-28T06:02:57;5.2;56.9
78516;SHT31;67815;51.990;5.688;2023-02-28T06:05:29;5.2;56.2
78516;SHT31;67815;51.990;5.688;2023-02-28T06:07:59;5.2;56.5
78516;SHT31;67815;51.990;5.688;2023-02-28T06:10:31;5.2;55.8
78516;SHT31;67815;51.990;5.688;2023-02-28T06:13:02;5.2;55.8
78516;SHT31;67815;51.990;5.688;2023-02-28T06:15:33;5.2;56.4
78516;SHT31;67815;51.990;5.688;2023-02-28T06:18:03;5.2;56.8
78516;SHT31;67815;51.990;5.688;2023-02-28T06:20:32;5.3;55.3
78516;SHT31;67815;51.990;5.688;2023-02-28T06:23:03;5.3;56.1
78516;SHT31;67815;51.990;5.688;2023-02-28T06:25:33;5.3;56.9
78516;SHT31;67815;51.990;5.688;2023-02-28T06:28:05;5.3;56.5
78516;SHT31;67815;51.990;5.688;2023-02-28T06:30:36;5.3;54.9
78516;SHT31;67815;51.990;5.688;2023-02-28T06:33:06;5.3;55.6
78516;SHT31;67815;51.990;5.688;2023-02-28T06:35:36;5.3;56.1
78516;SHT31;67815;51.990;5.688;2023-02-28T06:38:05;5.3;55.5
78516;SHT31;67815;51.990;5.688;2023-02-28T06:40:35;5.3;56.1
78516;SHT31;67815;51.990;5.688;2023-02-28T06:43:05;5.3;55.7
78516;SHT31;67815;51.990;5.688;2023-02-28T06:45:34;5.3;55.3
78516;SHT31;67815;51.990;5.688;2023-02-28T06:48:05;5.3;55.3
78516;SHT31;67815;51.990;5.688;2023-02-28T06:50:35;5.3;55.6
78516;SHT31;67815;51.990;5.688;2023-02-28T06:53:04;5.3;56.0
78516;SHT31;67815;51.990;5.688;2023-02-28T06:55:34;5.3;56.1
78516;SHT31;67815;51.990;5.688;2023-02-28T06:58:05;5.3;55.6
78516;SHT31;67815;51.990;5.688;2023-02-28T07:00:41;5.3;56.3
78516;SHT31;67815;51.990;5.688;2023-02-28T07:03:12;5.3;55.6
78516;SHT31;67815;51.990;5.688;2023-02-28T07:05:44;5.3;56.2
78516;SHT31;67815;51.990;5.688;2023-02-28T07:08:15;5.3;56.4
78516;SHT31;67815;51.990;5.688;2023-02-28T07:10:44;5.3;56.9
78516;SHT31;67815;51.990;5.688;2023-02-28T07:13:14;5.3;56.2
78516;SHT31;67815;51.990;5.688;2023-02-28T07:15:43;5.3;56.6
78516;SHT31;67815;51.990;5.688;2023-02-28T07:18:13;5.3;56.5
78516;SHT31;67815;51.990;5.688;2023-02-28T07:20:42;5.3;56.6
78516;SHT31;67815;51.990;5.688;2023-02-28T07:23:12;5.3;56.2
78516;SHT31;67815;51.990;5.688;2023-02-28T07:25:41;5.3;56.5
78516;SHT31;67815;51.990;5.688;2023-02-28T07:28:12;5.3;56.6
78516;SHT31;67815;51.990;5.688;2023-02-28T07:30:42;5.3;56.7
78516;SHT31;67815;51.990;5.688;2023-02-28T07:33:12;5.3;57.3
78516;SHT31;67815;51.990;5.688;2023-02-28T07:35:42;5.4;56.4
78516;SHT31;67815;51.990;5.688;2023-02-28T07:38:12;5.4;55.6
78516;SHT31;67815;51.990;5.688;2023-02-28T07:40:43;5.4;55.3
78516;SHT31;67815;51.990;5.688;2023-02-28T07:43:12;5.4;55.8
78516;SHT31;67815;51.990;5.688;2023-02-28T07:45:44;5.4;55.8
78516;SHT31;67815;51.990;5.688;2023-02-28T07:48:13;5.5;56.6
78516;SHT31;67815;51.990;5.688;2023-02-28T07:50:43;5.5;55.5
78516;SHT31;67815;51.990;5.688;2023-02-28T07:53:15;5.5;55.7
78516;SHT31;67815;51.990;5.688;2023-02-28T07:55:44;5.5;55.7
78516;SHT31;67815;51.990;5.688;2023-02-28T07:58:14;5.6;54.2
78516;SHT31;67815;51.990;5.688;2023-02-28T08:00:44;5.6;54.0
78516;SHT31;67815;51.990;5.688;2023-02-28T08:03:17;5.6;54.1
78516;SHT31;67815;51.990;5.688;2023-02-28T08:05:48;5.6;53.9
78516;SHT31;67815;51.990;5.688;2023-02-28T08:08:17;5.7;54.2
78516;SHT31;67815;51.990;5.688;2023-02-28T08:10:47;5.7;52.8
78516;SHT31;67815;51.990;5.688;2023-02-28T08:13:16;5.7;49.6
78516;SHT31;67815;51.990;5.688;2023-02-28T08:15:46;5.7;49.1
78516;SHT31;67815;51.990;5.688;2023-02-28T08:18:15;5.8;44.7
78516;SHT31;67815;51.990;5.688;2023-02-28T08:20:45;5.8;45.7
78516;SHT31;67815;51.990;5.688;2023-02-28T08:23:14;5.8;45.4
78516;SHT31;67815;51.990;5.688;2023-02-28T08:25:52;5.8;44.8
78516;SHT31;67815;51.990;5.688;2023-02-28T08:28:19;5.9;43.0
78516;SHT31;67815;51.990;5.688;2023-02-28T08:30:49;5.9;43.0
78516;SHT31;67815;51.990;5.688;2023-02-28T08:33:20;5.9;41.9
78516;SHT31;67815;51.990;5.688;2023-02-28T08:35:51;5.9;39.9
78516;SHT31;67815;51.990;5.688;2023-02-28T08:38:23;5.9;41.8
78516;SHT31;67815;51.990;5.688;2023-02-28T08:41:00;5.9;39.7
78516;SHT31;67815;51.990;5.688;2023-02-28T08:43:29;5.9;39.7
78516;SHT31;67815;51.990;5.688;2023-02-28T08:45:59;5.9;39.9
78516;SHT31;67815;51.990;5.688;2023-02-28T08:48:32;5.9;39.0
78516;SHT31;67815;51.990;5.688;2023-02-28T08:51:09;5.9;39.0
78516;SHT31;67815;51.990;5.688;2023-02-28T08:53:40;5.9;39.3
78516;SHT31;67815;51.990;5.688;2023-02-28T08:56:12;5.9;40.1
78516;SHT31;67815;51.990;5.688;2023-02-28T08:58:44;5.9;40.2
78516;SHT31;67815;51.990;5.688;2023-02-28T09:01:16;5.9;40.6
78516;SHT31;67815;51.990;5.688;2023-02-28T09:03:47;5.9;40.2
78516;SHT31;67815;51.990;5.688;2023-02-28T09:06:20;5.9;40.3
78516;SHT31;67815;51.990;5.688;2023-02-28T09:08:51;5.9;39.3
78516;SHT31;67815;51.990;5.688;2023-02-28T09:11:23;5.9;38.1
78516;SHT31;67815;51.990;5.688;2023-02-28T09:13:53;5.9;38.7
78516;SHT31;67815;51.990;5.688;2023-02-28T09:16:24;5.9;39.8
78516;SHT31;67815;51.990;5.688;2023-02-28T09:18:53;5.9;39.3
78516;SHT31;67815;51.990;5.688;2023-02-28T09:21:23;6.0;39.0
78516;SHT31;67815;51.990;5.688;2023-02-28T09:23:54;6.1;38.7
78516;SHT31;67815;51.990;5.688;2023-02-28T09:26:26;6.2;37.5
78516;SHT31;67815;51.990;5.688;2023-02-28T09:28:57;6.4;36.2
78516;SHT31;67815;51.990;5.688;2023-02-28T09:31:28;6.5;36.0
78516;SHT31;67815;51.990;5.688;2023-02-28T09:33:58;6.5;37.1
78516;SHT31;67815;51.990;5.688;2023-02-28T09:36:28;6.6;36.3
78516;SHT31;67815;51.990;5.688;2023-02-28T09:38:58;6.6;35.9
78516;SHT31;67815;51.990;5.688;2023-02-28T09:41:36;6.6;36.6
78516;SHT31;67815;51.990;5.688;2023-02-28T09:44:20;6.5;35.4
78516;SHT31;67815;51.990;5.688;2023-02-28T09:46:56;6.5;36.8
78516;SHT31;67815;51.990;5.688;2023-02-28T09:49:37;6.4;36.8
78516;SHT31;67815;51.990;5.688;2023-02-28T09:52:12;6.4;36.2
78516;SHT31;67815;51.990;5.688;2023-02-28T09:54:43;6.4;36.6
78516;SHT31;67815;51.990;5.688;2023-02-28T09:57:22;6.3;35.9
78516;SHT31;67815;51.990;5.688;2023-02-28T10:00:05;6.3;38.3
78516;SHT31;67815;51.990;5.688;2023-02-28T10:02:48;6.3;35.4
78516;SHT31;67815;51.990;5.688;2023-02-28T10:05:23;6.3;34.8
78516;SHT31;67815;51.990;5.688;2023-02-28T10:08:01;6.3;34.8
78516;SHT31;67815;51.990;5.688;2023-02-28T10:10:39;6.3;34.4
78516;SHT31;67815;51.990;5.688;2023-02-28T10:13:19;6.3;35.7
78516;SHT31;67815;51.990;5.688;2023-02-28T10:15:53;6.3;33.6
78516;SHT31;67815;51.990;5.688;2023-02-28T10:18:38;6.3;34.5
78516;SHT31;67815;51.990;5.688;2023-02-28T10:21:03;6.3;35.1
78516;SHT31;67815;51.990;5.688;2023-02-28T10:23:36;6.3;35.0
78516;SHT31;67815;51.990;5.688;2023-02-28T10:26:12;6.3;35.9
78516;SHT31;67815;51.990;5.688;2023-02-28T10:28:43;6.3;35.2
78516;SHT31;67815;51.990;5.688;2023-02-28T10:31:17;6.3;35.1
78516;SHT31;67815;51.990;5.688;2023-02-28T10:33:48;6.3;37.0
78516;SHT31;67815;51.990;5.688;2023-02-28T10:36:20;6.4;38.5
78516;SHT31;67815;51.990;5.688;2023-02-28T10:38:50;6.4;37.5
78516;SHT31;67815;51.990;5.688;2023-02-28T10:41:30;6.4;36.5
78516;SHT31;67815;51.990;5.688;2023-02-28T10:44:21;6.4;35.6
78516;SHT31;67815;51.990;5.688;2023-02-28T10:46:52;6.4;35.7
78516;SHT31;67815;51.990;5.688;2023-02-28T10:49:23;6.4;37.2
78516;SHT31;67815;51.990;5.688;2023-02-28T10:51:55;6.5;35.6
78516;SHT31;67815;51.990;5.688;2023-02-28T10:54:30;6.5;34.6
78516;SHT31;67815;51.990;5.688;2023-02-28T10:57:19;6.5;37.3
78516;SHT31;67815;51.990;5.688;2023-02-28T10:59:53;6.5;36.8
78516;SHT31;67815;51.990;5.688;2023-02-28T11:02:34;6.6;36.3
78516;SHT31;67815;51.990;5.688;2023-02-28T11:05:27;6.6;37.0
78516;SHT31;67815;51.990;5.688;2023-02-28T11:08:06;6.6;37.8
78516;SHT31;67815;51.990;5.688;2023-02-28T11:10:48;6.6;37.7
78516;SHT31;67815;51.990;5.688;2023-02-28T11:13:21;6.7;36.9
78516;SHT31;67815;51.990;5.688;2023-02-28T11:15:56;6.7;36.6
78516;SHT31;67815;51.990;5.688;2023-02-28T11:18:29;6.8;36.0
78516;SHT31;67815;51.990;5.688;2023-02-28T11:21:02;6.8;35.8
78516;SHT31;67815;51.990;5.688;2023-02-28T11:23:39;6.8;37.3
78516;SHT31;67815;51.990;5.688;2023-02-28T11:26:11;6.9;35.7
78516;SHT31;67815;51.990;5.688;2023-02-28T11:28:42;6.9;36.5
78516;SHT31;67815;51.990;5.688;2023-02-28T11:31:18;6.9;35.1
78516;SHT31;67815;51.990;5.688;2023-02-28T11:33:51;7.0;35.6
78516;SHT31;67815;51.990;5.688;2023-02-28T11:36:25;7.0;35.9
78516;SHT31;67815;51.990;5.688;2023-02-28T11:38:59;7.0;36.7
78516;SHT31;67815;51.990;5.688;2023-02-28T11:41:49;7.1;36.2
78516;SHT31;67815;51.990;5.688;2023-02-28T11:44:42;7.1;36.8
78516;SHT31;67815;51.990;5.688;2023-02-28T11:47:18;7.1;37.3
78516;SHT31;67815;51.990;5.688;2023-02-28T11:50:01;7.2;36.6
78516;SHT31;67815;51.990;5.688;2023-02-28T11:52:42;7.2;38.0
78516;SHT31;67815;51.990;5.688;2023-02-28T11:55:20;7.3;36.6
78516;SHT31;67815;51.990;5.688;2023-02-28T11:57:59;7.3;36.7
78516;SHT31;67815;51.990;5.688;2023-02-28T12:01:03;7.3;35.7
78516;SHT31;67815;51.990;5.688;2023-02-28T12:03:48;7.4;35.6
78516;SHT31;67815;51.990;5.688;2023-02-28T12:06:27;7.4;35.3
78516;SHT31;67815;51.990;5.688;2023-02-28T12:09:08;7.5;35.4
78516;SHT31;67815;51.990;5.688;2023-02-28T12:11:47;7.5;35.5
78516;SHT31;67815;51.990;5.688;2023-02-28T12:18:47;7.5;35.5
78516;SHT31;67815;51.990;5.688;2023-02-28T12:21:31;7.6;36.5
78516;SHT31;67815;51.990;5.688;2023-02-28T12:24:25;7.6;34.5
78516;SHT31;67815;51.990;5.688;2023-02-28T12:27:02;7.6;35.0
78516;SHT31;67815;51.990;5.688;2023-02-28T12:29:43;7.6;33.3
78516;SHT31;67815;51.990;5.688;2023-02-28T12:32:21;7.7;34.3
78516;SHT31;67815;51.990;5.688;2023-02-28T12:34:57;7.7;33.6
78516;SHT31;67815;51.990;5.688;2023-02-28T12:37:36;7.7;33.4
78516;SHT31;67815;51.990;5.688;2023-02-28T12:40:11;7.7;35.0
78516;SHT31;67815;51.990;5.688;2023-02-28T12:42:45;7.7;35.3
78516;SHT31;67815;51.990;5.688;2023-02-28T12:45:19;7.8;35.0
78516;SHT31;67815;51.990;5.688;2023-02-28T12:47:58;7.8;33.5
78516;SHT31;67815;51.990;5.688;2023-02-28T12:50:32;7.8;33.6
78516;SHT31;67815;51.990;5.688;2023-02-28T12:53:08;7.8;33.1
78516;SHT31;67815;51.990;5.688;2023-02-28T12:55:48;7.8;32.6
78516;SHT31;67815;51.990;5.688;2023-02-28T12:58:27;7.9;33.0
78516;SHT31;67815;51.990;5.688;2023-02-28T13:09:37;8.0;34.6
78516;SHT31;67815;51.990;5.688;2023-02-28T13:12:16;8.0;33.0
78516;SHT31;67815;51.990;5.688;2023-02-28T13:14:49;8.0;34.2
78516;SHT31;67815;51.990;5.688;2023-02-28T13:17:22;8.1;32.6
78516;SHT31;67815;51.990;5.688;2023-02-28T13:19:59;8.1;31.5
78516;SHT31;67815;51.990;5.688;2023-02-28T13:22:41;8.1;32.8
78516;SHT31;67815;51.990;5.688;2023-02-28T13:29:01;8.1;31.1
78516;SHT31;67815;51.990;5.688;2023-02-28T13:32:18;8.1;31.4
78516;SHT31;67815;51.990;5.688;2023-02-28T13:39:50;8.1;31.0
78516;SHT31;67815;51.990;5.688;2023-02-28T13:42:36;8.1;33.3
78516;SHT31;67815;51.990;5.688;2023-02-28T13:45:26;8.1;32.8
78516;SHT31;67815;51.990;5.688;2023-02-28T13:48:00;8.1;34.7
78516;SHT31;67815;51.990;5.688;2023-02-28T13:50:34;8.1;33.4
78516;SHT31;67815;51.990;5.688;2023-02-28T13:53:36;8.1;33.1
78516;SHT31;67815;51.990;5.688;2023-02-28T13:56:25;8.2;33.6
78516;SHT31;67815;51.990;5.688;2023-02-28T13:59:06;8.2;31.1
78516;SHT31;67815;51.990;5.688;2023-02-28T14:01:56;8.2;32.8
78516;SHT31;67815;51.990;5.688;2023-02-28T14:04:53;8.3;32.5
78516;SHT31;67815;51.990;5.688;2023-02-28T14:07:30;8.3;32.1
78516;SHT31;67815;51.990;5.688;2023-02-28T14:10:05;8.3;33.4
78516;SHT31;67815;51.990;5.688;2023-02-28T14:12:56;8.3;31.9
78516;SHT31;67815;51.990;5.688;2023-02-28T14:15:43;8.3;33.2
78516;SHT31;67815;51.990;5.688;2023-02-28T14:18:21;8.3;33.1
78516;SHT31;67815;51.990;5.688;2023-02-28T14:20:57;8.3;32.7
78516;SHT31;67815;51.990;5.688;2023-02-28T14:23:42;8.4;32.5
78516;SHT31;67815;51.990;5.688;2023-02-28T14:26:22;8.4;31.2
78516;SHT31;67815;51.990;5.688;2023-02-28T14:29:11;8.4;31.9
78516;SHT31;67815;51.990;5.688;2023-02-28T14:31:53;8.4;32.1
78516;SHT31;67815;51.990;5.688;2023-02-28T14:34:39;8.4;34.0
78516;SHT31;67815;51.990;5.688;2023-02-28T14:37:16;8.4;34.0
78516;SHT31;67815;51.990;5.688;2023-02-28T14:39:50;8.4;32.6
78516;SHT31;67815;51.990;5.688;2023-02-28T14:42:32;8.4;33.0
78516;SHT31;67815;51.990;5.688;2023-02-28T14:45:03;8.4;33.1
78516;SHT31;67815;51.990;5.688;2023-02-28T14:47:37;8.4;32.5
78516;SHT31;67815;51.990;5.688;2023-02-28T14:50:19;8.4;31.2
78516;SHT31;67815;51.990;5.688;2023-02-28T14:52:52;8.4;31.4
78516;SHT31;67815;51.990;5.688;2023-02-28T14:55:25;8.5;31.8
78516;SHT31;67815;51.990;5.688;2023-02-28T14:57:57;8.5;31.3
78516;SHT31;67815;51.990;5.688;2023-02-28T15:00:32;8.5;31.1
78516;SHT31;67815;51.990;5.688;2023-02-28T15:03:20;8.5;32.3
78516;SHT31;67815;51.990;5.688;2023-02-28T15:05:57;8.5;32.3
78516;SHT31;67815;51.990;5.688;2023-02-28T15:08:28;8.5;31.1
78516;SHT31;67815;51.990;5.688;2023-02-28T15:11:12;8.5;31.0
78516;SHT31;67815;51.990;5.688;2023-02-28T15:13:45;8.5;32.4
78516;SHT31;67815;51.990;5.688;2023-02-28T15:16:21;8.5;32.9
78516;SHT31;67815;51.990;5.688;2023-02-28T15:18:54;8.5;32.3
78516;SHT31;67815;51.990;5.688;2023-02-28T15:21:27;8.5;32.8
78516;SHT31;67815;51.990;5.688;2023-02-28T15:24:06;8.5;31.7
78516;SHT31;67815;51.990;5.688;2023-02-28T15:26:40;8.5;31.5
78516;SHT31;67815;51.990;5.688;2023-02-28T15:29:16;8.5;32.4
78516;SHT31;67815;51.990;5.688;2023-02-28T15:31:50;8.6;32.5
78516;SHT31;67815;51.990;5.688;2023-02-28T15:34:22;8.6;32.0
78516;SHT31;67815;51.990;5.688;2023-02-28T15:36:52;8.5;32.0
78516;SHT31;67815;51.990;5.688;2023-02-28T15:39:25;8.5;32.6
78516;SHT31;67815;51.990;5.688;2023-02-28T15:42:11;8.5;31.3
78516;SHT31;67815;51.990;5.688;2023-02-28T15:44:42;8.5;32.1
78516;SHT31;67815;51.990;5.688;2023-02-28T15:47:19;8.5;32.3
78516;SHT31;67815;51.990;5.688;2023-02-28T15:49:52;8.5;31.2
78516;SHT31;67815;51.990;5.688;2023-02-28T15:52:28;8.5;31.4
78516;SHT31;67815;51.990;5.688;2023-02-28T15:55:11;8.5;31.8
78516;SHT31;67815;51.990;5.688;2023-02-28T15:57:42;8.5;32.5
78516;SHT31;67815;51.990;5.688;2023-02-28T16:00:18;8.5;31.5
78516;SHT31;67815;51.990;5.688;2023-02-28T16:02:49;8.5;31.3
78516;SHT31;67815;51.990;5.688;2023-02-28T16:05:27;8.5;32.6
78516;SHT31;67815;51.990;5.688;2023-02-28T16:08:00;8.5;33.7
78516;SHT31;67815;51.990;5.688;2023-02-28T16:10:34;8.5;33.3
78516;SHT31;67815;51.990;5.688;2023-02-28T16:13:04;8.5;33.6
78516;SHT31;67815;51.990;5.688;2023-02-28T16:15:38;8.5;32.9
78516;SHT31;67815;51.990;5.688;2023-02-28T16:18:12;8.5;34.4
78516;SHT31;67815;51.990;5.688;2023-02-28T16:20:42;8.5;35.5
78516;SHT31;67815;51.990;5.688;2023-02-28T16:23:13;8.5;33.8
78516;SHT31;67815;51.990;5.688;2023-02-28T16:25:44;8.4;32.8
78516;SHT31;67815;51.990;5.688;2023-02-28T16:28:20;8.4;32.2
78516;SHT31;67815;51.990;5.688;2023-02-28T16:30:55;8.4;32.6
78516;SHT31;67815;51.990;5.688;2023-02-28T16:33:25;8.4;32.8
78516;SHT31;67815;51.990;5.688;2023-02-28T16:35:54;8.4;33.4
78516;SHT31;67815;51.990;5.688;2023-02-28T16:38:24;8.4;34.8
78516;SHT31;67815;51.990;5.688;2023-02-28T16:40:58;8.4;34.1
78516;SHT31;67815;51.990;5.688;2023-02-28T16:43:28;8.3;35.8
78516;SHT31;67815;51.990;5.688;2023-02-28T16:45:59;8.3;33.5
78516;SHT31;67815;51.990;5.688;2023-02-28T16:48:31;8.3;34.3
78516;SHT31;67815;51.990;5.688;2023-02-28T16:51:00;8.3;35.8
78516;SHT31;67815;51.990;5.688;2023-02-28T16:53:31;8.3;34.2
78516;SHT31;67815;51.990;5.688;2023-02-28T16:56:02;8.3;34.1
78516;SHT31;67815;51.990;5.688;2023-02-28T16:58:34;8.2;33.7
78516;SHT31;67815;51.990;5.688;2023-02-28T17:01:04;8.2;33.5
78516;SHT31;67815;51.990;5.688;2023-02-28T17:03:34;8.2;33.3
78516;SHT31;67815;51.990;5.688;2023-02-28T17:06:05;8.2;33.7
78516;SHT31;67815;51.990;5.688;2023-02-28T17:08:35;8.2;35.3
78516;SHT31;67815;51.990;5.688;2023-02-28T17:11:09;8.2;35.9
78516;SHT31;67815;51.990;5.688;2023-02-28T17:13:39;8.1;35.3
78516;SHT31;67815;51.990;5.688;2023-02-28T17:16:20;8.1;34.5
78516;SHT31;67815;51.990;5.688;2023-02-28T17:18:53;8.1;36.0
78516;SHT31;67815;51.990;5.688;2023-02-28T17:21:23;8.1;36.6
78516;SHT31;67815;51.990;5.688;2023-02-28T17:23:53;8.0;36.1
78516;SHT31;67815;51.990;5.688;2023-02-28T17:26:24;8.0;36.7
78516;SHT31;67815;51.990;5.688;2023-02-28T17:28:56;8.0;36.6